sensor_id;sensor_type;location;lat;lon;timestamp;pressure;altitude;pressure_sealevel;temperature;humidity
21240;BME280;10778;48.962;9.018;2023-02-12T00:02:13;101106.66;;;2.87;100.00
21240;BME280;10778;48.962;9.018;2023-02-12T00:04:39;101110.03;;;2.91;100.00
21240;BME280;10778;48.962;9.018;2023-02-12T00:07:05;101110.91;;;2.91;100.00
21240;BME280;10778;48.962;9.018;2023-02-12T00:09:31;101113.50;;;2.91;100.00
21240;BME280;10778;48.962;9.018;2023-02-12T00:11:57;101108.34;;;2.90;100.00
21240;BME280;10778;48.962;9.018;2023-02-12T00:14:23;101117.06;;;2.87;100.00
21240;BME280;10778;48.962;9.018;2023-02-12T00:16:49;101113.69;;;2.83;100.00
21240;BME280;10778;48.962;9.018;2023-02-12T00:19:15;101115.25;;;2.89;100.00
21240;BME280;10778;48.962;9.018;2023-02-12T00:21:41;101118.34;;;3.05;99.84
21240;BME280;10778;48.962;9.018;2023-02-12T00:24:07;101122.84;;;2.98;99.51
21240;BME280;10778;48.962;9.018;2023-02-12T00:26:34;101120.34;;;2.95;100.00
21240;BME280;10778;48.962;9.018;2023-02-12T00:29:01;101121.13;;;2.97;99.94
21240;BME280;10778;48.962;9.018;2023-02-12T00:31:28;101119.38;;;2.98;99.81
21240;BME280;10778;48.962;9.018;2023-02-12T00:33:56;101118.44;;;3.02;100.00
21240;BME280;10778;48.962;9.018;2023-02-12T00:36:25;101124.56;;;2.98;99.96
21240;BME280;10778;48.962;9.018;2023-02-12T00:38:53;101122.81;;;3.00;99.86
21240;BME280;10778;48.962;9.018;2023-02-12T00:41:20;101127.97;;;3.02;100.00
21240;BME280;10778;48.962;9.018;2023-02-12T00:43:46;101125.56;;;2.94;100.00
21240;BME280;10778;48.962;9.018;2023-02-12T00:46:13;101128.22;;;2.92;100.00
21240;BME280;10778;48.962;9.018;2023-02-12T00:48:40;101129.22;;;2.87;100.00
21240;BME280;10778;48.962;9.018;2023-02-12T00:51:06;101128.25;;;2.89;100.00
21240;BME280;10778;48.962;9.018;2023-02-12T00:53:32;101124.78;;;2.90;100.00
21240;BME280;10778;48.962;9.018;2023-02-12T00:55:59;101133.53;;;2.88;100.00
21240;BME280;10778;48.962;9.018;2023-02-12T00:58:25;101135.16;;;2.90;100.00
21240;BME280;10778;48.962;9.018;2023-02-12T01:00:52;101135.16;;;2.90;100.00
21240;BME280;10778;48.962;9.018;2023-02-12T01:03:19;101127.50;;;2.86;100.00
21240;BME280;10778;48.962;9.018;2023-02-12T01:05:45;101120.63;;;2.83;100.00
21240;BME280;10778;48.962;9.018;2023-02-12T01:08:12;101121.53;;;2.80;100.00
21240;BME280;10778;48.962;9.018;2023-02-12T01:10:39;101132.81;;;2.81;100.00
21240;BME280;10778;48.962;9.018;2023-02-12T01:13:05;101131.91;;;2.83;100.00
21240;BME280;10778;48.962;9.018;2023-02-12T01:15:31;101130.22;;;2.81;100.00
21240;BME280;10778;48.962;9.018;2023-02-12T01:17:57;101124.13;;;2.82;100.00
21240;BME280;10778;48.962;9.018;2023-02-12T01:20:24;101128.44;;;2.81;100.00
21240;BME280;10778;48.962;9.018;2023-02-12T01:22:50;101129.25;;;2.85;100.00
21240;BME280;10778;48.962;9.018;2023-02-12T01:25:16;101130.88;;;2.89;100.00
21240;BME280;10778;48.962;9.018;2023-02-12T01:27:42;101134.53;;;2.80;100.00
21240;BME280;10778;48.962;9.018;2023-02-12T01:30:12;101132.84;;;2.79;100.00
21240;BME280;10778;48.962;9.018;2023-02-12T01:32:38;101139.00;;;2.75;100.00
21240;BME280;10778;48.962;9.018;2023-02-12T01:35:04;101137.50;;;2.65;100.00
21240;BME280;10778;48.962;9.018;2023-02-12T01:37:34;101130.47;;;2.70;100.00
21240;BME280;10778;48.962;9.018;2023-02-12T01:39:59;101124.31;;;2.74;100.00
21240;BME280;10778;48.962;9.018;2023-02-12T01:42:25;101129.44;;;2.77;100.00
21240;BME280;10778;48.962;9.018;2023-02-12T01:45:45;101126.00;;;2.77;100.00
21240;BME280;10778;48.962;9.018;2023-02-12T01:48:13;101124.38;;;2.71;100.00
21240;BME280;10778;48.962;9.018;2023-02-12T01:50:43;101120.09;;;2.70;100.00
21240;BME280;10778;48.962;9.018;2023-02-12T01:53:13;101120.09;;;2.68;100.00
21240;BME280;10778;48.962;9.018;2023-02-12T01:55:52;101123.56;;;2.69;100.00
21240;BME280;10778;48.962;9.018;2023-02-12T01:58:20;101125.28;;;2.70;100.00
21240;BME280;10778;48.962;9.018;2023-02-12T02:00:47;101121.00;;;2.67;100.00
21240;BME280;10778;48.962;9.018;2023-02-12T02:03:13;101120.97;;;2.69;100.00
21240;BME280;10778;48.962;9.018;2023-02-12T02:05:54;101121.78;;;2.71;100.00
21240;BME280;10778;48.962;9.018;2023-02-12T02:08:21;101119.09;;;2.74;100.00
21240;BME280;10778;48.962;9.018;2023-02-12T02:10:47;101117.31;;;2.76;100.00
21240;BME280;10778;48.962;9.018;2023-02-12T02:13:14;101117.47;;;2.70;100.00
21240;BME280;10778;48.962;9.018;2023-02-12T02:16:04;101108.88;;;2.68;100.00
21240;BME280;10778;48.962;9.018;2023-02-12T02:18:42;101109.69;;;2.70;100.00
21240;BME280;10778;48.962;9.018;2023-02-12T02:32:00;101094.94;;;2.70;100.00
21240;BME280;10778;48.962;9.018;2023-02-12T02:34:39;101095.75;;;2.73;100.00
21240;BME280;10778;48.962;9.018;2023-02-12T02:39:53;101086.44;;;2.64;100.00
21240;BME280;10778;48.962;9.018;2023-02-12T02:42:30;101093.47;;;2.60;100.00
21240;BME280;10778;48.962;9.018;2023-02-12T02:45:51;101093.38;;;2.63;100.00
21240;BME280;10778;48.962;9.018;2023-02-12T02:48:03;101091.53;;;2.68;100.00
21240;BME280;10778;48.962;9.018;2023-02-12T02:50:31;101096.72;;;2.68;100.00
21240;BME280;10778;48.962;9.018;2023-02-12T02:53:04;101091.63;;;2.64;100.00
21240;BME280;10778;48.962;9.018;2023-02-12T02:55:36;101088.09;;;2.66;100.00
21240;BME280;10778;48.962;9.018;2023-02-12T02:58:11;101082.94;;;2.65;100.00
21240;BME280;10778;48.962;9.018;2023-02-12T03:00:49;101082.06;;;2.66;100.00
21240;BME280;10778;48.962;9.018;2023-02-12T03:03:26;101089.88;;;2.66;100.00
21240;BME280;10778;48.962;9.018;2023-02-12T03:05:57;101095.91;;;2.66;100.00
21240;BME280;10778;48.962;9.018;2023-02-12T03:08:38;101102.00;;;2.65;100.00
21240;BME280;10778;48.962;9.018;2023-02-12T03:11:14;101107.09;;;2.70;100.00
21240;BME280;10778;48.962;9.018;2023-02-12T03:13:46;101101.97;;;2.67;100.00
21240;BME280;10778;48.962;9.018;2023-02-12T03:16:17;101107.22;;;2.64;100.00
21240;BME280;10778;48.962;9.018;2023-02-12T03:18:51;101103.78;;;2.63;100.00
21240;BME280;10778;48.962;9.018;2023-02-12T03:21:26;101110.78;;;2.60;100.00
21240;BME280;10778;48.962;9.018;2023-02-12T03:24:04;101111.66;;;2.60;100.00
21240;BME280;10778;48.962;9.018;2023-02-12T03:26:45;101113.38;;;2.60;100.00
21240;BME280;10778;48.962;9.018;2023-02-12T03:29:12;101114.25;;;2.60;100.00
21240;BME280;10778;48.962;9.018;2023-02-12T03:32:05;101115.41;;;2.48;100.00
21240;BME280;10778;48.962;9.018;2023-02-12T03:37:40;101105.69;;;2.55;100.00
21240;BME280;10778;48.962;9.018;2023-02-12T03:40:15;101106.50;;;2.59;100.00
21240;BME280;10778;48.962;9.018;2023-02-12T03:42:49;101105.66;;;2.56;100.00
21240;BME280;10778;48.962;9.018;2023-02-12T03:48:21;101104.75;;;2.59;100.00
21240;BME280;10778;48.962;9.018;2023-02-12T03:50:56;101103.88;;;2.59;100.00
21240;BME280;10778;48.962;9.018;2023-02-12T03:53:26;101109.06;;;2.60;100.00
21240;BME280;10778;48.962;9.018;2023-02-12T03:55:58;101103.94;;;2.57;100.00
21240;BME280;10778;48.962;9.018;2023-02-12T03:58:28;101102.19;;;2.58;100.00
21240;BME280;10778;48.962;9.018;2023-02-12T04:00:55;101112.56;;;2.58;100.00
21240;BME280;10778;48.962;9.018;2023-02-12T04:03:21;101109.94;;;2.59;100.00
21240;BME280;10778;48.962;9.018;2023-02-12T04:05:47;101117.84;;;2.54;100.00
21240;BME280;10778;48.962;9.018;2023-02-12T04:08:13;101121.91;;;2.66;100.00
21240;BME280;10778;48.962;9.018;2023-02-12T04:13:24;101123.75;;;2.61;100.00
21240;BME280;10778;48.962;9.018;2023-02-12T04:16:27;101126.53;;;2.53;100.00
21240;BME280;10778;48.962;9.018;2023-02-12T04:18:55;101124.75;;;2.55;100.00
21240;BME280;10778;48.962;9.018;2023-02-12T04:24:36;101127.34;;;2.55;100.00
21240;BME280;10778;48.962;9.018;2023-02-12T04:27:20;101132.56;;;2.55;100.00
21240;BME280;10778;48.962;9.018;2023-02-12T04:29:57;101135.31;;;2.49;100.00
21240;BME280;10778;48.962;9.018;2023-02-12T04:32:46;101144.00;;;2.47;100.00
21240;BME280;10778;48.962;9.018;2023-02-12T04:35:23;101134.69;;;2.38;100.00
21240;BME280;10778;48.962;9.018;2023-02-12T04:37:58;101138.09;;;2.40;100.00
21240;BME280;10778;48.962;9.018;2023-02-12T04:40:26;101138.00;;;2.45;100.00
21240;BME280;10778;48.962;9.018;2023-02-12T04:42:53;101138.84;;;2.45;100.00
21240;BME280;10778;48.962;9.018;2023-02-12T04:45:22;101140.53;;;2.48;100.00
21240;BME280;10778;48.962;9.018;2023-02-12T04:47:49;101139.56;;;2.52;100.00
21240;BME280;10778;48.962;9.018;2023-02-12T04:50:15;101137.78;;;2.54;100.00
21240;BME280;10778;48.962;9.018;2023-02-12T04:52:41;101137.78;;;2.54;100.00
21240;BME280;10778;48.962;9.018;2023-02-12T04:55:07;101143.03;;;2.51;100.00
21240;BME280;10778;48.962;9.018;2023-02-12T04:57:33;101143.84;;;2.53;100.00
21240;BME280;10778;48.962;9.018;2023-02-12T04:59:59;101139.53;;;2.53;100.00
21240;BME280;10778;48.962;9.018;2023-02-12T05:02:25;101133.59;;;2.48;100.00
21240;BME280;10778;48.962;9.018;2023-02-12T05:04:51;101132.66;;;2.51;100.00
21240;BME280;10778;48.962;9.018;2023-02-12T05:07:17;101141.38;;;2.48;100.00
21240;BME280;10778;48.962;9.018;2023-02-12T05:09:43;101133.66;;;2.45;100.00
21240;BME280;10778;48.962;9.018;2023-02-12T05:12:09;101138.78;;;2.48;100.00
21240;BME280;10778;48.962;9.018;2023-02-12T05:14:35;101133.66;;;2.45;100.00
21240;BME280;10778;48.962;9.018;2023-02-12T05:17:01;101143.13;;;2.48;100.00
21240;BME280;10778;48.962;9.018;2023-02-12T05:19:27;101126.66;;;2.47;100.00
21240;BME280;10778;48.962;9.018;2023-02-12T05:21:53;101126.03;;;2.37;100.00
21240;BME280;10778;48.962;9.018;2023-02-12T05:24:19;101133.78;;;2.39;100.00
21240;BME280;10778;48.962;9.018;2023-02-12T05:26:45;101130.41;;;2.35;100.00
21240;BME280;10778;48.962;9.018;2023-02-12T05:29:11;101132.97;;;2.37;100.00
21240;BME280;10778;48.962;9.018;2023-02-12T05:31:36;101142.56;;;2.33;100.00
21240;BME280;10778;48.962;9.018;2023-02-12T05:34:02;101140.84;;;2.34;100.00
21240;BME280;10778;48.962;9.018;2023-02-12T05:36:29;101136.53;;;2.33;100.00
21240;BME280;10778;48.962;9.018;2023-02-12T05:38:58;101142.63;;;2.32;100.00
21240;BME280;10778;48.962;9.018;2023-02-12T05:41:25;101135.66;;;2.34;100.00
21240;BME280;10778;48.962;9.018;2023-02-12T05:43:51;101138.19;;;2.35;100.00
21240;BME280;10778;48.962;9.018;2023-02-12T05:46:19;101145.22;;;2.32;100.00
21240;BME280;10778;48.962;9.018;2023-02-12T05:48:45;101145.09;;;2.36;100.00
21240;BME280;10778;48.962;9.018;2023-02-12T05:51:14;101139.06;;;2.36;100.00
21240;BME280;10778;48.962;9.018;2023-02-12T05:53:41;101136.56;;;2.31;100.00
21240;BME280;10778;48.962;9.018;2023-02-12T05:56:16;101141.03;;;2.24;100.00
21240;BME280;10778;48.962;9.018;2023-02-12T05:58:44;101143.50;;;2.31;100.00
21240;BME280;10778;48.962;9.018;2023-02-12T06:01:14;101144.34;;;2.31;100.00
21240;BME280;10778;48.962;9.018;2023-02-12T06:03:43;101145.16;;;2.35;100.00
21240;BME280;10778;48.962;9.018;2023-02-12T06:06:09;101140.84;;;2.34;100.00
21240;BME280;10778;48.962;9.018;2023-02-12T06:08:36;101142.63;;;2.32;100.00
21240;BME280;10778;48.962;9.018;2023-02-12T06:11:04;101144.38;;;2.30;100.00
21240;BME280;10778;48.962;9.018;2023-02-12T06:13:31;101140.13;;;2.27;100.00
21240;BME280;10778;48.962;9.018;2023-02-12T06:15:57;101148.72;;;2.29;100.00
21240;BME280;10778;48.962;9.018;2023-02-12T06:18:24;101142.81;;;2.22;100.00
21240;BME280;10778;48.962;9.018;2023-02-12T06:20:51;101139.56;;;2.12;100.00
21240;BME280;10778;48.962;9.018;2023-02-12T06:23:23;101143.00;;;2.13;100.00
21240;BME280;10778;48.962;9.018;2023-02-12T06:25:50;101153.38;;;2.13;100.00
21240;BME280;10778;48.962;9.018;2023-02-12T06:28:16;101151.69;;;2.12;100.00
21240;BME280;10778;48.962;9.018;2023-02-12T06:30:42;101149.03;;;2.15;100.00
21240;BME280;10778;48.962;9.018;2023-02-12T06:33:08;101144.63;;;2.19;100.00
21240;BME280;10778;48.962;9.018;2023-02-12T06:35:35;101153.22;;;2.21;100.00
21240;BME280;10778;48.962;9.018;2023-02-12T06:38:01;101167.06;;;2.23;100.00
21240;BME280;10778;48.962;9.018;2023-02-12T06:40:27;101165.28;;;2.25;100.00
21240;BME280;10778;48.962;9.018;2023-02-12T06:42:53;101171.25;;;2.28;100.00
21240;BME280;10778;48.962;9.018;2023-02-12T06:45:19;101166.00;;;2.32;100.00
21240;BME280;10778;48.962;9.018;2023-02-12T06:47:45;101170.31;;;2.33;100.00
21240;BME280;10778;48.962;9.018;2023-02-12T06:50:11;101175.44;;;2.34;100.00
21240;BME280;10778;48.962;9.018;2023-02-12T06:52:37;101179.81;;;2.34;100.00
21240;BME280;10778;48.962;9.018;2023-02-12T06:55:03;101182.25;;;2.40;100.00
21240;BME280;10778;48.962;9.018;2023-02-12T06:57:29;101182.25;;;2.40;100.00
21240;BME280;10778;48.962;9.018;2023-02-12T06:59:55;101181.44;;;2.38;100.00
21240;BME280;10778;48.962;9.018;2023-02-12T07:02:21;101184.94;;;2.37;100.00
21240;BME280;10778;48.962;9.018;2023-02-12T07:04:47;101184.84;;;2.40;100.00
21240;BME280;10778;48.962;9.018;2023-02-12T07:07:13;101185.66;;;2.44;100.00
21240;BME280;10778;48.962;9.018;2023-02-12T07:09:39;101189.09;;;2.44;100.00
21240;BME280;10778;48.962;9.018;2023-02-12T07:12:05;101193.41;;;2.45;100.00
21240;BME280;10778;48.962;9.018;2023-02-12T07:14:31;101182.88;;;2.51;100.00
21240;BME280;10778;48.962;9.018;2023-02-12T07:16:57;101191.44;;;2.55;100.00
21240;BME280;10778;48.962;9.018;2023-02-12T07:19:24;101186.22;;;2.58;100.00
21240;BME280;10778;48.962;9.018;2023-02-12T07:21:50;101182.63;;;2.62;100.00
21240;BME280;10778;48.962;9.018;2023-02-12T07:24:16;101184.34;;;2.63;100.00
21240;BME280;10778;48.962;9.018;2023-02-12T07:26:42;101179.31;;;2.57;100.00
21240;BME280;10778;48.962;9.018;2023-02-12T07:29:08;101183.78;;;2.50;100.00
21240;BME280;10778;48.962;9.018;2023-02-12T07:31:34;101181.81;;;2.60;100.00
21240;BME280;10778;48.962;9.018;2023-02-12T07:34:00;101183.34;;;2.69;100.00
21240;BME280;10778;48.962;9.018;2023-02-12T07:36:29;101184.19;;;2.69;100.00
21240;BME280;10778;48.962;9.018;2023-02-12T07:38:56;101183.13;;;2.78;100.00
21240;BME280;10778;48.962;9.018;2023-02-12T07:41:25;101183.72;;;2.91;100.00
21240;BME280;10778;48.962;9.018;2023-02-12T07:43:59;101179.06;;;3.03;100.00
21240;BME280;10778;48.962;9.018;2023-02-12T07:46:29;101172.84;;;3.10;100.00
21240;BME280;10778;48.962;9.018;2023-02-12T07:48:57;101176.78;;;3.25;100.00
21240;BME280;10778;48.962;9.018;2023-02-12T07:51:24;101183.53;;;3.32;100.00
21240;BME280;10778;48.962;9.018;2023-02-12T07:53:51;101181.69;;;3.37;100.00
21240;BME280;10778;48.962;9.018;2023-02-12T07:56:20;101180.81;;;3.37;100.00
21240;BME280;10778;48.962;9.018;2023-02-12T07:58:49;101179.03;;;3.39;100.00
21240;BME280;10778;48.962;9.018;2023-02-12T08:03:46;101177.03;;;3.49;100.00
21240;BME280;10778;48.962;9.018;2023-02-12T08:06:18;101178.59;;;3.56;100.00
21240;BME280;10778;48.962;9.018;2023-02-12T08:08:45;101172.63;;;3.51;100.00
21240;BME280;10778;48.962;9.018;2023-02-12T08:11:13;101174.97;;;3.62;100.00
21240;BME280;10778;48.962;9.018;2023-02-12T08:13:40;101170.41;;;3.70;100.00
21240;BME280;10778;48.962;9.018;2023-02-12T08:16:08;101172.06;;;3.73;100.00
21240;BME280;10778;48.962;9.018;2023-02-12T08:18:35;101175.53;;;3.73;100.00
21240;BME280;10778;48.962;9.018;2023-02-12T08:21:05;101167.63;;;3.76;100.00
21240;BME280;10778;48.962;9.018;2023-02-12T08:23:32;101171.81;;;3.82;100.00
21240;BME280;10778;48.962;9.018;2023-02-12T08:26:05;101173.34;;;3.89;100.00
21240;BME280;10778;48.962;9.018;2023-02-12T08:28:31;101174.97;;;3.93;100.00
21240;BME280;10778;48.962;9.018;2023-02-12T08:31:06;101176.56;;;3.97;100.00
21240;BME280;10778;48.962;9.018;2023-02-12T08:33:33;101171.22;;;4.04;100.00
21240;BME280;10778;48.962;9.018;2023-02-12T08:36:03;101175.66;;;4.30;100.00
21240;BME280;10778;48.962;9.018;2023-02-12T08:38:31;101176.56;;;4.29;99.66
21240;BME280;10778;48.962;9.018;2023-02-12T08:41:06;101176.22;;;4.40;99.39
21240;BME280;10778;48.962;9.018;2023-02-12T08:43:32;101176.78;;;4.50;98.95
21240;BME280;10778;48.962;9.018;2023-02-12T08:46:10;101175.09;;;4.49;98.75
21240;BME280;10778;48.962;9.018;2023-02-12T08:48:37;101175.59;;;4.60;98.23
21240;BME280;10778;48.962;9.018;2023-02-12T08:51:09;101172.75;;;4.68;97.58
21240;BME280;10778;48.962;9.018;2023-02-12T08:53:36;101174.97;;;4.80;96.22
21240;BME280;10778;48.962;9.018;2023-02-12T08:56:03;101185.69;;;4.98;95.79
21240;BME280;10778;48.962;9.018;2023-02-12T08:58:29;101177.78;;;5.01;95.07
21240;BME280;10778;48.962;9.018;2023-02-12T09:00:55;101179.44;;;5.04;93.95
21240;BME280;10778;48.962;9.018;2023-02-12T09:03:21;101180.38;;;5.28;91.26
21240;BME280;10778;48.962;9.018;2023-02-12T09:05:47;101179.56;;;5.26;91.19
21240;BME280;10778;48.962;9.018;2023-02-12T09:08:14;101180.19;;;6.09;99.04
21240;BME280;10778;48.962;9.018;2023-02-12T09:10:41;101185.63;;;6.26;95.63
21240;BME280;10778;48.962;9.018;2023-02-12T09:13:08;101180.69;;;6.41;91.19
21240;BME280;10778;48.962;9.018;2023-02-12T09:15:36;101183.69;;;6.54;87.85
21240;BME280;10778;48.962;9.018;2023-02-12T09:18:03;101181.69;;;6.61;87.01
21240;BME280;10778;48.962;9.018;2023-02-12T09:20:29;101186.47;;;6.49;86.60
21240;BME280;10778;48.962;9.018;2023-02-12T09:22:57;101186.50;;;6.72;85.12
21240;BME280;10778;48.962;9.018;2023-02-12T09:25:24;101178.38;;;7.00;84.61
21240;BME280;10778;48.962;9.018;2023-02-12T09:27:50;101189.72;;;6.78;83.70
21240;BME280;10778;48.962;9.018;2023-02-12T09:30:16;101187.94;;;6.57;86.19
21240;BME280;10778;48.962;9.018;2023-02-12T09:32:42;101184.47;;;6.78;84.97
21240;BME280;10778;48.962;9.018;2023-02-12T09:35:08;101178.25;;;6.81;85.16
21240;BME280;10778;48.962;9.018;2023-02-12T09:37:38;101173.91;;;7.02;84.80
21240;BME280;10778;48.962;9.018;2023-02-12T09:40:17;101175.28;;;7.52;84.71
21240;BME280;10778;48.962;9.018;2023-02-12T09:43:18;101175.63;;;7.65;84.61
21240;BME280;10778;48.962;9.018;2023-02-12T09:46:09;101180.41;;;7.56;80.63
21240;BME280;10778;48.962;9.018;2023-02-12T09:51:08;101188.28;;;7.56;80.62
21240;BME280;10778;48.962;9.018;2023-02-12T09:53:42;101193.38;;;7.38;80.66
21240;BME280;10778;48.962;9.018;2023-02-12T09:56:18;101194.50;;;7.11;82.78
21240;BME280;10778;48.962;9.018;2023-02-12T09:58:56;101188.38;;;7.32;82.88
21240;BME280;10778;48.962;9.018;2023-02-12T10:01:26;101182.00;;;7.39;82.34
21240;BME280;10778;48.962;9.018;2023-02-12T10:03:52;101189.75;;;7.40;81.83
21240;BME280;10778;48.962;9.018;2023-02-12T10:06:32;101180.34;;;7.36;81.96
21240;BME280;10778;48.962;9.018;2023-02-12T10:09:32;101177.22;;;7.49;82.64
21240;BME280;10778;48.962;9.018;2023-02-12T10:15:11;101177.34;;;7.46;81.99
21240;BME280;10778;48.962;9.018;2023-02-12T10:17:42;101181.34;;;7.54;82.88
21240;BME280;10778;48.962;9.018;2023-02-12T10:20:44;101176.25;;;7.71;83.25
21240;BME280;10778;48.962;9.018;2023-02-12T10:26:21;101171.16;;;7.87;81.37
21240;BME280;10778;48.962;9.018;2023-02-12T10:28:50;101173.19;;;8.01;81.36
21240;BME280;10778;48.962;9.018;2023-02-12T10:31:28;101178.47;;;7.80;82.35
21240;BME280;10778;48.962;9.018;2023-02-12T10:33:55;101179.50;;;7.76;83.06
21240;BME280;10778;48.962;9.018;2023-02-12T10:36:42;101174.06;;;7.80;84.14
21240;BME280;10778;48.962;9.018;2023-02-12T10:41:39;101170.28;;;7.88;83.73
21240;BME280;10778;48.962;9.018;2023-02-12T10:44:11;101173.09;;;7.83;83.14
21240;BME280;10778;48.962;9.018;2023-02-12T10:46:37;101166.75;;;7.89;83.61
21240;BME280;10778;48.962;9.018;2023-02-12T10:49:04;101168.00;;;7.99;82.85
21240;BME280;10778;48.962;9.018;2023-02-12T10:51:55;101172.31;;;7.60;84.23
21240;BME280;10778;48.962;9.018;2023-02-12T10:54:43;101167.09;;;7.60;84.50
21240;BME280;10778;48.962;9.018;2023-02-12T10:57:13;101169.38;;;7.68;84.57
21240;BME280;10778;48.962;9.018;2023-02-12T10:59:42;101163.41;;;7.85;82.95
21240;BME280;10778;48.962;9.018;2023-02-12T11:02:21;101152.88;;;7.66;83.80
21240;BME280;10778;48.962;9.018;2023-02-12T11:04:48;101154.91;;;7.80;83.22
21240;BME280;10778;48.962;9.018;2023-02-12T11:07:14;101150.56;;;7.79;83.38
21240;BME280;10778;48.962;9.018;2023-02-12T11:09:43;101150.44;;;7.61;84.42
21240;BME280;10778;48.962;9.018;2023-02-12T11:12:19;101149.38;;;7.86;84.18
21240;BME280;10778;48.962;9.018;2023-02-12T11:14:54;101152.13;;;8.02;82.60
21240;BME280;10778;48.962;9.018;2023-02-12T11:17:25;101145.53;;;8.13;82.77
21240;BME280;10778;48.962;9.018;2023-02-12T11:20:03;101148.75;;;8.19;82.95
21240;BME280;10778;48.962;9.018;2023-02-12T11:22:29;101141.13;;;8.13;83.86
21240;BME280;10778;48.962;9.018;2023-02-12T11:25:01;101140.00;;;7.80;83.91
21240;BME280;10778;48.962;9.018;2023-02-12T11:27:29;101131.41;;;7.97;84.25
21240;BME280;10778;48.962;9.018;2023-02-12T11:30:12;101137.97;;;7.87;84.55
21240;BME280;10778;48.962;9.018;2023-02-12T11:32:39;101135.06;;;7.93;83.30
21240;BME280;10778;48.962;9.018;2023-02-12T11:35:13;101131.41;;;7.97;83.76
21240;BME280;10778;48.962;9.018;2023-02-12T11:37:43;101126.25;;;7.94;83.78
21240;BME280;10778;48.962;9.018;2023-02-12T11:40:39;101128.22;;;7.70;85.25
21240;BME280;10778;48.962;9.018;2023-02-12T11:43:16;101134.56;;;7.85;85.16
21240;BME280;10778;48.962;9.018;2023-02-12T11:45:46;101127.91;;;7.97;84.69
21240;BME280;10778;48.962;9.018;2023-02-12T11:48:37;101124.63;;;8.11;84.12
21240;BME280;10778;48.962;9.018;2023-02-12T11:51:06;101130.22;;;8.03;84.44
21240;BME280;10778;48.962;9.018;2023-02-12T11:53:39;101126.41;;;8.10;85.41
21240;BME280;10778;48.962;9.018;2023-02-12T11:56:10;101130.22;;;8.22;85.01
21240;BME280;10778;48.962;9.018;2023-02-12T11:58:38;101125.03;;;8.21;84.65
21240;BME280;10778;48.962;9.018;2023-02-12T12:01:11;101129.66;;;8.35;83.16
21240;BME280;10778;48.962;9.018;2023-02-12T12:04:03;101115.63;;;8.36;83.56
21240;BME280;10778;48.962;9.018;2023-02-12T12:06:45;101119.78;;;8.40;83.69
21240;BME280;10778;48.962;9.018;2023-02-12T12:14:49;101109.69;;;8.87;80.86
21240;BME280;10778;48.962;9.018;2023-02-12T12:17:50;101102.91;;;8.82;81.59
21240;BME280;10778;48.962;9.018;2023-02-12T12:20:51;101106.84;;;8.91;81.36
21240;BME280;10778;48.962;9.018;2023-02-12T12:23:19;101098.63;;;9.15;80.80
21240;BME280;10778;48.962;9.018;2023-02-12T12:25:55;101095.09;;;9.32;79.30
21240;BME280;10778;48.962;9.018;2023-02-12T12:28:33;101095.50;;;9.42;78.37
21240;BME280;10778;48.962;9.018;2023-02-12T12:33:36;101098.38;;;9.37;78.13
21240;BME280;10778;48.962;9.018;2023-02-12T12:41:45;101088.06;;;9.17;77.70
21240;BME280;10778;48.962;9.018;2023-02-12T12:47:31;101082.34;;;9.08;78.18
21240;BME280;10778;48.962;9.018;2023-02-12T12:50:26;101090.44;;;9.04;78.61
21240;BME280;10778;48.962;9.018;2023-02-12T12:56:07;101073.16;;;8.82;79.07
21240;BME280;10778;48.962;9.018;2023-02-12T13:12:10;101058.31;;;9.16;77.18
21240;BME280;10778;48.962;9.018;2023-02-12T13:14:51;101060.88;;;9.18;76.96
21240;BME280;10778;48.962;9.018;2023-02-12T13:17:35;101052.19;;;9.65;76.00
21240;BME280;10778;48.962;9.018;2023-02-12T13:20:15;101047.13;;;9.78;74.22
21240;BME280;10778;48.962;9.018;2023-02-12T13:25:33;101049.50;;;9.83;74.56
21240;BME280;10778;48.962;9.018;2023-02-12T13:28:03;101046.75;;;10.01;74.99
21240;BME280;10778;48.962;9.018;2023-02-12T13:30:41;101041.88;;;10.10;73.90
21240;BME280;10778;48.962;9.018;2023-02-12T13:33:14;101041.41;;;10.18;73.06
21240;BME280;10778;48.962;9.018;2023-02-12T13:35:45;101041.50;;;10.63;72.27
21240;BME280;10778;48.962;9.018;2023-02-12T13:38:18;101031.22;;;11.04;70.01
21240;BME280;10778;48.962;9.018;2023-02-12T13:40:46;101031.09;;;11.49;69.68
21240;BME280;10778;48.962;9.018;2023-02-12T13:43:22;101021.00;;;11.70;67.50
21240;BME280;10778;48.962;9.018;2023-02-12T13:46:02;101018.94;;;11.61;67.95
21240;BME280;10778;48.962;9.018;2023-02-12T13:48:49;101024.44;;;11.85;68.06
21240;BME280;10778;48.962;9.018;2023-02-12T13:54:39;101022.47;;;11.18;68.38
21240;BME280;10778;48.962;9.018;2023-02-12T13:57:14;101020.41;;;11.23;68.10
21240;BME280;10778;48.962;9.018;2023-02-12T13:59:54;101006.38;;;11.08;69.81
21240;BME280;10778;48.962;9.018;2023-02-12T14:02:40;101008.97;;;11.66;68.00
21240;BME280;10778;48.962;9.018;2023-02-12T14:05:20;100999.00;;;11.84;66.98
21240;BME280;10778;48.962;9.018;2023-02-12T14:07:53;101003.31;;;11.58;67.99
21240;BME280;10778;48.962;9.018;2023-02-12T14:10:24;101002.50;;;11.43;68.32
21240;BME280;10778;48.962;9.018;2023-02-12T14:13:10;100994.41;;;11.46;68.24
21240;BME280;10778;48.962;9.018;2023-02-12T14:15:40;100999.59;;;11.33;68.72
21240;BME280;10778;48.962;9.018;2023-02-12T14:18:41;101002.88;;;11.36;68.38
21240;BME280;10778;48.962;9.018;2023-02-12T14:23:41;100995.66;;;11.26;69.45
21240;BME280;10778;48.962;9.018;2023-02-12T14:26:10;100993.19;;;11.37;68.45
21240;BME280;10778;48.962;9.018;2023-02-12T14:28:46;100992.25;;;11.23;69.46
21240;BME280;10778;48.962;9.018;2023-02-12T14:33:46;101008.38;;;11.61;68.31
21240;BME280;10778;48.962;9.018;2023-02-12T14:41:55;100996.97;;;11.33;68.71
21240;BME280;10778;48.962;9.018;2023-02-12T14:46:49;100999.63;;;11.18;68.96